sensor_id;sensor_type;location;lat;lon;timestamp;P1;durP1;ratioP1;P2;durP2;ratioP2
76589;SDS011;65471;55.908;37.880;2023-10-09T00:02:09;0.70;;;0.70;;
76589;SDS011;65471;55.908;37.880;2023-10-09T00:04:37;0.52;;;0.52;;
76589;SDS011;65471;55.908;37.880;2023-10-09T00:07:09;0.70;;;0.70;;
76589;SDS011;65471;55.908;37.880;2023-10-09T00:09:38;0.80;;;0.80;;
76589;SDS011;65471;55.908;37.880;2023-10-09T00:12:16;0.82;;;0.82;;
76589;SDS011;65471;55.908;37.880;2023-10-09T00:14:50;1.27;;;0.93;;
76589;SDS011;65471;55.908;37.880;2023-10-09T00:17:22;0.85;;;0.85;;
76589;SDS011;65471;55.908;37.880;2023-10-09T00:19:50;2.45;;;2.22;;
76589;SDS011;65471;55.908;37.880;2023-10-09T00:22:18;1.95;;;1.30;;
76589;SDS011;65471;55.908;37.880;2023-10-09T00:24:56;0.90;;;0.90;;
76589;SDS011;65471;55.908;37.880;2023-10-09T00:27:48;1.17;;;1.13;;
76589;SDS011;65471;55.908;37.880;2023-10-09T00:30:15;1.02;;;1.02;;
76589;SDS011;65471;55.908;37.880;2023-10-09T00:32:48;1.20;;;1.20;;
76589;SDS011;65471;55.908;37.880;2023-10-09T00:35:27;1.27;;;1.20;;
76589;SDS011;65471;55.908;37.880;2023-10-09T00:38:04;1.20;;;1.20;;
76589;SDS011;65471;55.908;37.880;2023-10-09T00:40:46;13.93;;;1.67;;
76589;SDS011;65471;55.908;37.880;2023-10-09T00:43:19;1.20;;;1.20;;
76589;SDS011;65471;55.908;37.880;2023-10-09T00:45:46;1.35;;;1.35;;
76589;SDS011;65471;55.908;37.880;2023-10-09T00:48:13;1.60;;;1.50;;
76589;SDS011;65471;55.908;37.880;2023-10-09T00:50:48;1.30;;;1.30;;
76589;SDS011;65471;55.908;37.880;2023-10-09T00:53:20;1.35;;;1.35;;
76589;SDS011;65471;55.908;37.880;2023-10-09T00:55:59;1.60;;;1.50;;
76589;SDS011;65471;55.908;37.880;2023-10-09T00:58:47;1.40;;;1.40;;
76589;SDS011;65471;55.908;37.880;2023-10-09T01:01:22;1.33;;;1.33;;
76589;SDS011;65471;55.908;37.880;2023-10-09T01:04:01;2.30;;;1.50;;
76589;SDS011;65471;55.908;37.880;2023-10-09T01:06:39;1.73;;;1.70;;
76589;SDS011;65471;55.908;37.880;2023-10-09T01:09:11;1.58;;;1.58;;
76589;SDS011;65471;55.908;37.880;2023-10-09T01:11:41;1.50;;;1.50;;
76589;SDS011;65471;55.908;37.880;2023-10-09T01:14:26;1.40;;;1.40;;
76589;SDS011;65471;55.908;37.880;2023-10-09T01:16:54;1.80;;;1.80;;
76589;SDS011;65471;55.908;37.880;2023-10-09T01:19:21;1.73;;;1.63;;
76589;SDS011;65471;55.908;37.880;2023-10-09T01:21:51;1.75;;;1.75;;
76589;SDS011;65471;55.908;37.880;2023-10-09T01:24:18;1.90;;;1.90;;
76589;SDS011;65471;55.908;37.880;2023-10-09T01:26:46;1.67;;;1.65;;
76589;SDS011;65471;55.908;37.880;2023-10-09T01:31:44;1.63;;;1.63;;
76589;SDS011;65471;55.908;37.880;2023-10-09T01:34:33;1.40;;;1.40;;
76589;SDS011;65471;55.908;37.880;2023-10-09T01:37:17;1.55;;;1.55;;
76589;SDS011;65471;55.908;37.880;2023-10-09T01:39:50;1.40;;;1.40;;
76589;SDS011;65471;55.908;37.880;2023-10-09T01:42:25;1.40;;;1.40;;
76589;SDS011;65471;55.908;37.880;2023-10-09T01:45:12;1.20;;;1.20;;
76589;SDS011;65471;55.908;37.880;2023-10-09T01:47:53;1.20;;;1.20;;
76589;SDS011;65471;55.908;37.880;2023-10-09T01:50:24;1.23;;;1.23;;
76589;SDS011;65471;55.908;37.880;2023-10-09T01:52:58;1.05;;;1.05;;
76589;SDS011;65471;55.908;37.880;2023-10-09T01:55:29;1.10;;;1.10;;
76589;SDS011;65471;55.908;37.880;2023-10-09T01:58:09;1.05;;;1.05;;
76589;SDS011;65471;55.908;37.880;2023-10-09T02:00:51;0.88;;;0.88;;
76589;SDS011;65471;55.908;37.880;2023-10-09T02:03:22;1.20;;;1.20;;
76589;SDS011;65471;55.908;37.880;2023-10-09T02:05:53;1.00;;;1.00;;
76589;SDS011;65471;55.908;37.880;2023-10-09T02:08:26;1.00;;;1.00;;
76589;SDS011;65471;55.908;37.880;2023-10-09T02:10:53;1.10;;;1.10;;
76589;SDS011;65471;55.908;37.880;2023-10-09T02:13:23;1.10;;;1.10;;
76589;SDS011;65471;55.908;37.880;2023-10-09T02:15:58;1.15;;;1.15;;
76589;SDS011;65471;55.908;37.880;2023-10-09T02:18:41;1.20;;;1.20;;
76589;SDS011;65471;55.908;37.880;2023-10-09T02:21:22;1.27;;;1.27;;
76589;SDS011;65471;55.908;37.880;2023-10-09T02:24:07;1.00;;;1.00;;
76589;SDS011;65471;55.908;37.880;2023-10-09T02:26:53;0.90;;;0.90;;
76589;SDS011;65471;55.908;37.880;2023-10-09T02:29:20;0.85;;;0.85;;
76589;SDS011;65471;55.908;37.880;2023-10-09T02:31:50;0.95;;;0.95;;
76589;SDS011;65471;55.908;37.880;2023-10-09T02:34:27;1.00;;;1.00;;
76589;SDS011;65471;55.908;37.880;2023-10-09T02:36:56;1.02;;;1.02;;
76589;SDS011;65471;55.908;37.880;2023-10-09T02:39:32;0.80;;;0.80;;
76589;SDS011;65471;55.908;37.880;2023-10-09T02:42:09;0.90;;;0.90;;
76589;SDS011;65471;55.908;37.880;2023-10-09T02:44:40;1.05;;;1.00;;
76589;SDS011;65471;55.908;37.880;2023-10-09T02:47:13;0.90;;;0.90;;
76589;SDS011;65471;55.908;37.880;2023-10-09T02:49:47;1.00;;;1.00;;
76589;SDS011;65471;55.908;37.880;2023-10-09T02:52:17;0.88;;;0.88;;
76589;SDS011;65471;55.908;37.880;2023-10-09T02:54:52;0.95;;;0.95;;
76589;SDS011;65471;55.908;37.880;2023-10-09T02:57:28;0.85;;;0.85;;
76589;SDS011;65471;55.908;37.880;2023-10-09T03:00:06;0.90;;;0.90;;
76589;SDS011;65471;55.908;37.880;2023-10-09T03:02:45;0.80;;;0.80;;
76589;SDS011;65471;55.908;37.880;2023-10-09T03:05:17;0.52;;;0.52;;
76589;SDS011;65471;55.908;37.880;2023-10-09T03:07:44;0.80;;;0.80;;
76589;SDS011;65471;55.908;37.880;2023-10-09T03:10:11;0.77;;;0.77;;
76589;SDS011;65471;55.908;37.880;2023-10-09T03:12:38;0.85;;;0.85;;
76589;SDS011;65471;55.908;37.880;2023-10-09T03:15:06;0.70;;;0.70;;
76589;SDS011;65471;55.908;37.880;2023-10-09T03:17:35;0.70;;;0.70;;
76589;SDS011;65471;55.908;37.880;2023-10-09T03:20:05;0.55;;;0.55;;
76589;SDS011;65471;55.908;37.880;2023-10-09T03:22:39;0.70;;;0.70;;
76589;SDS011;65471;55.908;37.880;2023-10-09T03:25:07;4.68;;;4.43;;
76589;SDS011;65471;55.908;37.880;2023-10-09T03:27:44;1.70;;;1.70;;
76589;SDS011;65471;55.908;37.880;2023-10-09T03:30:16;2.60;;;1.23;;
76589;SDS011;65471;55.908;37.880;2023-10-09T03:32:51;2.83;;;2.63;;
76589;SDS011;65471;55.908;37.880;2023-10-09T03:35:22;1.00;;;1.00;;
76589;SDS011;65471;55.908;37.880;2023-10-09T03:37:54;1.35;;;1.33;;
76589;SDS011;65471;55.908;37.880;2023-10-09T03:40:41;0.80;;;0.80;;
76589;SDS011;65471;55.908;37.880;2023-10-09T03:43:09;0.88;;;0.88;;
76589;SDS011;65471;55.908;37.880;2023-10-09T03:45:37;1.13;;;1.13;;
76589;SDS011;65471;55.908;37.880;2023-10-09T03:48:11;0.90;;;0.90;;
76589;SDS011;65471;55.908;37.880;2023-10-09T03:50:47;0.70;;;0.70;;
76589;SDS011;65471;55.908;37.880;2023-10-09T03:53:15;0.80;;;0.80;;
76589;SDS011;65471;55.908;37.880;2023-10-09T03:55:42;0.73;;;0.73;;
76589;SDS011;65471;55.908;37.880;2023-10-09T03:58:09;1.83;;;1.83;;
76589;SDS011;65471;55.908;37.880;2023-10-09T04:00:40;2.63;;;1.38;;
76589;SDS011;65471;55.908;37.880;2023-10-09T04:03:12;0.60;;;0.60;;
76589;SDS011;65471;55.908;37.880;2023-10-09T04:05:42;0.75;;;0.75;;
76589;SDS011;65471;55.908;37.880;2023-10-09T04:08:13;0.60;;;0.60;;
76589;SDS011;65471;55.908;37.880;2023-10-09T04:10:55;0.77;;;0.77;;
76589;SDS011;65471;55.908;37.880;2023-10-09T04:13:28;0.50;;;0.50;;
76589;SDS011;65471;55.908;37.880;2023-10-09T04:16:02;0.80;;;0.80;;
76589;SDS011;65471;55.908;37.880;2023-10-09T04:18:36;0.70;;;0.70;;
76589;SDS011;65471;55.908;37.880;2023-10-09T04:21:05;0.57;;;0.57;;
76589;SDS011;65471;55.908;37.880;2023-10-09T04:23:45;1.58;;;0.60;;
76589;SDS011;65471;55.908;37.880;2023-10-09T04:26:47;6.07;;;0.68;;
76589;SDS011;65471;55.908;37.880;2023-10-09T04:29:14;0.60;;;0.60;;
76589;SDS011;65471;55.908;37.880;2023-10-09T04:34:24;0.70;;;0.70;;
76589;SDS011;65471;55.908;37.880;2023-10-09T04:36:55;0.80;;;0.80;;
76589;SDS011;65471;55.908;37.880;2023-10-09T04:39:27;0.77;;;0.77;;
76589;SDS011;65471;55.908;37.880;2023-10-09T04:41:57;0.50;;;0.50;;
76589;SDS011;65471;55.908;37.880;2023-10-09T04:44:47;0.70;;;0.70;;
76589;SDS011;65471;55.908;37.880;2023-10-09T04:47:37;0.50;;;0.50;;
76589;SDS011;65471;55.908;37.880;2023-10-09T04:50:08;0.57;;;0.57;;
76589;SDS011;65471;55.908;37.880;2023-10-09T04:52:42;0.70;;;0.70;;
76589;SDS011;65471;55.908;37.880;2023-10-09T04:55:08;0.50;;;0.50;;
76589;SDS011;65471;55.908;37.880;2023-10-09T04:57:36;0.90;;;0.90;;
76589;SDS011;65471;55.908;37.880;2023-10-09T05:02:59;0.65;;;0.65;;
76589;SDS011;65471;55.908;37.880;2023-10-09T05:05:54;1.00;;;1.00;;
76589;SDS011;65471;55.908;37.880;2023-10-09T05:08:50;1.10;;;0.80;;
76589;SDS011;65471;55.908;37.880;2023-10-09T05:11:22;1.10;;;0.98;;
76589;SDS011;65471;55.908;37.880;2023-10-09T05:14:20;1.17;;;1.08;;
76589;SDS011;65471;55.908;37.880;2023-10-09T05:17:05;0.98;;;0.98;;
76589;SDS011;65471;55.908;37.880;2023-10-09T05:19:42;1.10;;;1.10;;
76589;SDS011;65471;55.908;37.880;2023-10-09T05:22:22;0.70;;;0.70;;
76589;SDS011;65471;55.908;37.880;2023-10-09T05:25:04;0.93;;;0.90;;
76589;SDS011;65471;55.908;37.880;2023-10-09T05:27:42;1.15;;;1.15;;
76589;SDS011;65471;55.908;37.880;2023-10-09T05:30:12;2.25;;;1.10;;
76589;SDS011;65471;55.908;37.880;2023-10-09T05:32:52;1.23;;;1.10;;
76589;SDS011;65471;55.908;37.880;2023-10-09T05:35:25;0.90;;;0.90;;
76589;SDS011;65471;55.908;37.880;2023-10-09T05:38:07;1.17;;;1.00;;
76589;SDS011;65471;55.908;37.880;2023-10-09T05:40:50;1.17;;;1.17;;
76589;SDS011;65471;55.908;37.880;2023-10-09T05:43:21;1.80;;;1.40;;
76589;SDS011;65471;55.908;37.880;2023-10-09T05:46:14;1.00;;;1.00;;
76589;SDS011;65471;55.908;37.880;2023-10-09T05:48:42;1.40;;;1.40;;
76589;SDS011;65471;55.908;37.880;2023-10-09T05:51:09;7.38;;;1.20;;
76589;SDS011;65471;55.908;37.880;2023-10-09T05:53:36;1.98;;;1.08;;
76589;SDS011;65471;55.908;37.880;2023-10-09T05:56:12;0.68;;;0.68;;
76589;SDS011;65471;55.908;37.880;2023-10-09T05:58:57;1.25;;;1.15;;
76589;SDS011;65471;55.908;37.880;2023-10-09T06:01:43;2.55;;;1.38;;
76589;SDS011;65471;55.908;37.880;2023-10-09T06:04:25;2.63;;;1.10;;
76589;SDS011;65471;55.908;37.880;2023-10-09T06:07:11;1.00;;;1.00;;
76589;SDS011;65471;55.908;37.880;2023-10-09T06:09:40;1.27;;;1.17;;
76589;SDS011;65471;55.908;37.880;2023-10-09T06:12:17;1.00;;;1.00;;
76589;SDS011;65471;55.908;37.880;2023-10-09T06:15:00;1.20;;;1.20;;
76589;SDS011;65471;55.908;37.880;2023-10-09T06:17:50;1.17;;;1.17;;
76589;SDS011;65471;55.908;37.880;2023-10-09T06:20:17;1.30;;;1.30;;
76589;SDS011;65471;55.908;37.880;2023-10-09T06:23:13;1.17;;;1.10;;
76589;SDS011;65471;55.908;37.880;2023-10-09T06:25:43;1.10;;;1.10;;
76589;SDS011;65471;55.908;37.880;2023-10-09T06:28:18;1.35;;;1.30;;
76589;SDS011;65471;55.908;37.880;2023-10-09T06:30:46;3.90;;;1.00;;
76589;SDS011;65471;55.908;37.880;2023-10-09T06:33:14;1.25;;;1.20;;
76589;SDS011;65471;55.908;37.880;2023-10-09T06:35:56;1.50;;;1.45;;
76589;SDS011;65471;55.908;37.880;2023-10-09T06:38:23;1.17;;;1.17;;
76589;SDS011;65471;55.908;37.880;2023-10-09T06:40:59;8.52;;;1.13;;
76589;SDS011;65471;55.908;37.880;2023-10-09T06:43:32;0.95;;;0.95;;
76589;SDS011;65471;55.908;37.880;2023-10-09T06:46:03;1.10;;;1.10;;
76589;SDS011;65471;55.908;37.880;2023-10-09T06:49:09;1.00;;;1.00;;
76589;SDS011;65471;55.908;37.880;2023-10-09T06:51:55;1.20;;;1.08;;
76589;SDS011;65471;55.908;37.880;2023-10-09T06:54:39;1.05;;;1.05;;
76589;SDS011;65471;55.908;37.880;2023-10-09T06:57:16;7.30;;;1.20;;
76589;SDS011;65471;55.908;37.880;2023-10-09T06:59:57;1.20;;;1.20;;
76589;SDS011;65471;55.908;37.880;2023-10-09T07:03:02;0.90;;;0.90;;
76589;SDS011;65471;55.908;37.880;2023-10-09T07:05:38;1.10;;;1.10;;
76589;SDS011;65471;55.908;37.880;2023-10-09T07:08:25;13.63;;;1.35;;
76589;SDS011;65471;55.908;37.880;2023-10-09T07:11:01;1.02;;;1.02;;
76589;SDS011;65471;55.908;37.880;2023-10-09T07:13:46;2.85;;;0.95;;
76589;SDS011;65471;55.908;37.880;2023-10-09T07:16:22;2.40;;;0.90;;
76589;SDS011;65471;55.908;37.880;2023-10-09T07:19:05;0.98;;;0.98;;
76589;SDS011;65471;55.908;37.880;2023-10-09T07:21:50;0.85;;;0.85;;
76589;SDS011;65471;55.908;37.880;2023-10-09T07:24:20;1.08;;;1.08;;
76589;SDS011;65471;55.908;37.880;2023-10-09T07:27:04;1.27;;;1.27;;
76589;SDS011;65471;55.908;37.880;2023-10-09T07:29:36;1.10;;;1.10;;
76589;SDS011;65471;55.908;37.880;2023-10-09T07:32:14;0.98;;;0.98;;
76589;SDS011;65471;55.908;37.880;2023-10-09T07:34:48;2.83;;;1.30;;
76589;SDS011;65471;55.908;37.880;2023-10-09T07:37:26;4.03;;;1.10;;
76589;SDS011;65471;55.908;37.880;2023-10-09T07:40:02;1.00;;;1.00;;
76589;SDS011;65471;55.908;37.880;2023-10-09T07:42:34;3.50;;;1.20;;
76589;SDS011;65471;55.908;37.880;2023-10-09T07:45:10;1.00;;;1.00;;
76589;SDS011;65471;55.908;37.880;2023-10-09T07:47:47;0.90;;;0.90;;
76589;SDS011;65471;55.908;37.880;2023-10-09T07:50:34;1.10;;;1.10;;
76589;SDS011;65471;55.908;37.880;2023-10-09T07:53:15;0.98;;;0.98;;
76589;SDS011;65471;55.908;37.880;2023-10-09T07:55:52;1.15;;;1.13;;
76589;SDS011;65471;55.908;37.880;2023-10-09T07:58:33;0.90;;;0.90;;
76589;SDS011;65471;55.908;37.880;2023-10-09T08:01:13;3.53;;;0.93;;
76589;SDS011;65471;55.908;37.880;2023-10-09T08:04:01;2.80;;;1.25;;
76589;SDS011;65471;55.908;37.880;2023-10-09T08:06:32;1.20;;;1.20;;
76589;SDS011;65471;55.908;37.880;2023-10-09T08:09:05;3.25;;;1.25;;
76589;SDS011;65471;55.908;37.880;2023-10-09T08:11:48;1.40;;;1.30;;
76589;SDS011;65471;55.908;37.880;2023-10-09T08:14:34;1.20;;;1.20;;
76589;SDS011;65471;55.908;37.880;2023-10-09T08:17:01;1.20;;;1.10;;
76589;SDS011;65471;55.908;37.880;2023-10-09T08:19:48;0.95;;;0.95;;
76589;SDS011;65471;55.908;37.880;2023-10-09T08:22:23;1.75;;;1.35;;
76589;SDS011;65471;55.908;37.880;2023-10-09T08:24:51;1.20;;;1.20;;
76589;SDS011;65471;55.908;37.880;2023-10-09T08:27:25;1.00;;;1.00;;
76589;SDS011;65471;55.908;37.880;2023-10-09T08:29:56;1.30;;;1.20;;
76589;SDS011;65471;55.908;37.880;2023-10-09T08:32:48;0.90;;;0.90;;
76589;SDS011;65471;55.908;37.880;2023-10-09T08:35:57;1.05;;;1.05;;
76589;SDS011;65471;55.908;37.880;2023-10-09T08:38:34;2.50;;;1.27;;
76589;SDS011;65471;55.908;37.880;2023-10-09T08:41:11;1.10;;;1.10;;
76589;SDS011;65471;55.908;37.880;2023-10-09T08:43:48;1.25;;;1.25;;
76589;SDS011;65471;55.908;37.880;2023-10-09T08:46:18;1.70;;;1.10;;
76589;SDS011;65471;55.908;37.880;2023-10-09T08:48:47;1.10;;;1.10;;
76589;SDS011;65471;55.908;37.880;2023-10-09T08:51:16;4.70;;;1.27;;
76589;SDS011;65471;55.908;37.880;2023-10-09T08:53:44;0.90;;;0.90;;
76589;SDS011;65471;55.908;37.880;2023-10-09T08:56:13;0.77;;;0.77;;
76589;SDS011;65471;55.908;37.880;2023-10-09T08:58:52;0.63;;;0.63;;
76589;SDS011;65471;55.908;37.880;2023-10-09T09:01:22;5.32;;;0.98;;
76589;SDS011;65471;55.908;37.880;2023-10-09T09:03:52;1.00;;;1.00;;
76589;SDS011;65471;55.908;37.880;2023-10-09T09:06:23;1.10;;;1.10;;
76589;SDS011;65471;55.908;37.880;2023-10-09T09:08:50;1.00;;;1.00;;
76589;SDS011;65471;55.908;37.880;2023-10-09T09:11:26;3.03;;;1.10;;
76589;SDS011;65471;55.908;37.880;2023-10-09T09:14:01;7.32;;;1.00;;
76589;SDS011;65471;55.908;37.880;2023-10-09T09:16:32;0.75;;;0.75;;
76589;SDS011;65471;55.908;37.880;2023-10-09T09:19:02;1.38;;;1.10;;
76589;SDS011;65471;55.908;37.880;2023-10-09T09:21:39;0.95;;;0.95;;
76589;SDS011;65471;55.908;37.880;2023-10-09T09:24:13;1.00;;;1.00;;
76589;SDS011;65471;55.908;37.880;2023-10-09T09:26:50;2.10;;;1.00;;
76589;SDS011;65471;55.908;37.880;2023-10-09T09:32:05;1.02;;;0.93;;
76589;SDS011;65471;55.908;37.880;2023-10-09T09:34:44;1.17;;;1.17;;
76589;SDS011;65471;55.908;37.880;2023-10-09T09:37:24;2.47;;;0.80;;
76589;SDS011;65471;55.908;37.880;2023-10-09T09:39:56;0.90;;;0.90;;
76589;SDS011;65471;55.908;37.880;2023-10-09T09:44:52;1.45;;;1.08;;
76589;SDS011;65471;55.908;37.880;2023-10-09T09:47:19;1.20;;;1.13;;
76589;SDS011;65471;55.908;37.880;2023-10-09T09:49:54;1.73;;;1.08;;
76589;SDS011;65471;55.908;37.880;2023-10-09T09:52:42;1.10;;;1.10;;
76589;SDS011;65471;55.908;37.880;2023-10-09T09:55:10;1.90;;;1.20;;
76589;SDS011;65471;55.908;37.880;2023-10-09T09:57:44;1.38;;;1.25;;
76589;SDS011;65471;55.908;37.880;2023-10-09T10:00:22;1.35;;;1.10;;
76589;SDS011;65471;55.908;37.880;2023-10-09T10:03:14;0.82;;;0.82;;
76589;SDS011;65471;55.908;37.880;2023-10-09T10:05:45;1.33;;;1.30;;
76589;SDS011;65471;55.908;37.880;2023-10-09T10:08:19;1.00;;;1.00;;
76589;SDS011;65471;55.908;37.880;2023-10-09T10:10:49;0.88;;;0.88;;
76589;SDS011;65471;55.908;37.880;2023-10-09T10:18:59;2.08;;;1.08;;
76589;SDS011;65471;55.908;37.880;2023-10-09T10:21:29;1.25;;;1.20;;
76589;SDS011;65471;55.908;37.880;2023-10-09T10:23:59;4.53;;;1.00;;
76589;SDS011;65471;55.908;37.880;2023-10-09T10:26:33;1.30;;;1.20;;
76589;SDS011;65471;55.908;37.880;2023-10-09T10:29:15;0.77;;;0.77;;
76589;SDS011;65471;55.908;37.880;2023-10-09T10:32:00;1.73;;;1.42;;
76589;SDS011;65471;55.908;37.880;2023-10-09T10:35:07;1.40;;;1.40;;
76589;SDS011;65471;55.908;37.880;2023-10-09T10:37:36;1.40;;;1.30;;
76589;SDS011;65471;55.908;37.880;2023-10-09T10:40:10;1.27;;;1.27;;
76589;SDS011;65471;55.908;37.880;2023-10-09T10:42:50;2.58;;;1.00;;
76589;SDS011;65471;55.908;37.880;2023-10-09T10:45:36;1.35;;;1.25;;
76589;SDS011;65471;55.908;37.880;2023-10-09T10:50:36;1.20;;;1.20;;
76589;SDS011;65471;55.908;37.880;2023-10-09T10:53:08;1.00;;;1.00;;
76589;SDS011;65471;55.908;37.880;2023-10-09T10:56:00;5.60;;;0.98;;
76589;SDS011;65471;55.908;37.880;2023-10-09T10:58:52;0.85;;;0.85;;
76589;SDS011;65471;55.908;37.880;2023-10-09T11:01:38;0.77;;;0.77;;
76589;SDS011;65471;55.908;37.880;2023-10-09T11:04:25;0.80;;;0.80;;
76589;SDS011;65471;55.908;37.880;2023-10-09T11:07:00;1.33;;;1.33;;
76589;SDS011;65471;55.908;37.880;2023-10-09T11:10:10;5.72;;;1.27;;
76589;SDS011;65471;55.908;37.880;2023-10-09T11:15:11;1.00;;;1.00;;
76589;SDS011;65471;55.908;37.880;2023-10-09T11:18:07;1.13;;;1.13;;
76589;SDS011;65471;55.908;37.880;2023-10-09T11:20:34;1.00;;;1.00;;
76589;SDS011;65471;55.908;37.880;2023-10-09T11:23:05;0.90;;;0.90;;
76589;SDS011;65471;55.908;37.880;2023-10-09T11:25:39;1.13;;;1.13;;
76589;SDS011;65471;55.908;37.880;2023-10-09T11:28:20;1.10;;;1.10;;
76589;SDS011;65471;55.908;37.880;2023-10-09T11:31:09;1.10;;;1.10;;
76589;SDS011;65471;55.908;37.880;2023-10-09T11:33:45;1.17;;;1.17;;
76589;SDS011;65471;55.908;37.880;2023-10-09T11:36:15;1.27;;;1.25;;
76589;SDS011;65471;55.908;37.880;2023-10-09T11:38:42;1.10;;;1.10;;
76589;SDS011;65471;55.908;37.880;2023-10-09T11:41:16;1.15;;;1.15;;
76589;SDS011;65471;55.908;37.880;2023-10-09T11:43:50;0.98;;;0.98;;
76589;SDS011;65471;55.908;37.880;2023-10-09T11:46:19;1.45;;;1.10;;
76589;SDS011;65471;55.908;37.880;2023-10-09T11:49:15;1.40;;;1.40;;
76589;SDS011;65471;55.908;37.880;2023-10-09T11:51:42;1.05;;;1.05;;
76589;SDS011;65471;55.908;37.880;2023-10-09T11:54:32;1.10;;;1.10;;
76589;SDS011;65471;55.908;37.880;2023-10-09T11:57:02;1.10;;;1.05;;
76589;SDS011;65471;55.908;37.880;2023-10-09T11:59:30;1.10;;;1.10;;
76589;SDS011;65471;55.908;37.880;2023-10-09T12:02:04;1.00;;;1.00;;
76589;SDS011;65471;55.908;37.880;2023-10-09T12:04:33;1.10;;;1.10;;
76589;SDS011;65471;55.908;37.880;2023-10-09T12:07:00;1.00;;;1.00;;
76589;SDS011;65471;55.908;37.880;2023-10-09T12:09:34;1.10;;;1.10;;
76589;SDS011;65471;55.908;37.880;2023-10-09T12:12:02;1.02;;;1.02;;
76589;SDS011;65471;55.908;37.880;2023-10-09T12:17:06;1.20;;;1.20;;
76589;SDS011;65471;55.908;37.880;2023-10-09T12:19:36;1.60;;;1.50;;
76589;SDS011;65471;55.908;37.880;2023-10-09T12:22:05;1.00;;;1.00;;
76589;SDS011;65471;55.908;37.880;2023-10-09T12:24:37;2.17;;;1.30;;
76589;SDS011;65471;55.908;37.880;2023-10-09T12:27:04;1.20;;;1.15;;
76589;SDS011;65471;55.908;37.880;2023-10-09T12:29:37;1.20;;;1.20;;
76589;SDS011;65471;55.908;37.880;2023-10-09T12:32:13;1.02;;;1.02;;
76589;SDS011;65471;55.908;37.880;2023-10-09T12:34:40;4.95;;;1.20;;
76589;SDS011;65471;55.908;37.880;2023-10-09T12:37:08;1.08;;;1.08;;
76589;SDS011;65471;55.908;37.880;2023-10-09T12:39:35;1.05;;;1.05;;
76589;SDS011;65471;55.908;37.880;2023-10-09T12:42:06;0.90;;;0.90;;
76589;SDS011;65471;55.908;37.880;2023-10-09T12:44:35;1.02;;;1.02;;
76589;SDS011;65471;55.908;37.880;2023-10-09T12:47:06;0.85;;;0.85;;
76589;SDS011;65471;55.908;37.880;2023-10-09T12:49:33;0.93;;;0.90;;
76589;SDS011;65471;55.908;37.880;2023-10-09T12:52:00;0.65;;;0.65;;
76589;SDS011;65471;55.908;37.880;2023-10-09T12:54:27;3.60;;;1.10;;
76589;SDS011;65471;55.908;37.880;2023-10-09T12:56:55;0.93;;;0.90;;
76589;SDS011;65471;55.908;37.880;2023-10-09T12:59:22;1.20;;;1.10;;
76589;SDS011;65471;55.908;37.880;2023-10-09T13:01:50;1.30;;;1.20;;
76589;SDS011;65471;55.908;37.880;2023-10-09T13:04:24;1.45;;;1.10;;
76589;SDS011;65471;55.908;37.880;2023-10-09T13:06:59;3.40;;;1.30;;
76589;SDS011;65471;55.908;37.880;2023-10-09T13:09:30;1.02;;;1.02;;
76589;SDS011;65471;55.908;37.880;2023-10-09T13:12:09;2.45;;;0.90;;
76589;SDS011;65471;55.908;37.880;2023-10-09T13:14:45;1.60;;;1.50;;
76589;SDS011;65471;55.908;37.880;2023-10-09T13:17:13;1.02;;;1.02;;
76589;SDS011;65471;55.908;37.880;2023-10-09T13:19:40;1.67;;;1.60;;
76589;SDS011;65471;55.908;37.880;2023-10-09T13:22:10;1.33;;;1.27;;
76589;SDS011;65471;55.908;37.880;2023-10-09T13:24:40;1.50;;;1.40;;
76589;SDS011;65471;55.908;37.880;2023-10-09T13:27:07;1.75;;;1.40;;
76589;SDS011;65471;55.908;37.880;2023-10-09T13:29:37;1.42;;;1.33;;
76589;SDS011;65471;55.908;37.880;2023-10-09T13:32:06;2.88;;;1.20;;
76589;SDS011;65471;55.908;37.880;2023-10-09T13:34:41;1.58;;;1.48;;
76589;SDS011;65471;55.908;37.880;2023-10-09T13:37:15;15.45;;;1.40;;
76589;SDS011;65471;55.908;37.880;2023-10-09T13:39:48;1.42;;;1.33;;
76589;SDS011;65471;55.908;37.880;2023-10-09T13:42:23;3.15;;;1.15;;
76589;SDS011;65471;55.908;37.880;2023-10-09T13:44:52;1.30;;;1.30;;
76589;SDS011;65471;55.908;37.880;2023-10-09T13:47:20;1.73;;;1.67;;
76589;SDS011;65471;55.908;37.880;2023-10-09T13:49:47;1.45;;;1.38;;
76589;SDS011;65471;55.908;37.880;2023-10-09T13:52:18;1.45;;;1.40;;
76589;SDS011;65471;55.908;37.880;2023-10-09T13:54:48;1.50;;;1.50;;
76589;SDS011;65471;55.908;37.880;2023-10-09T13:57:16;1.48;;;1.35;;
76589;SDS011;65471;55.908;37.880;2023-10-09T13:59:43;1.42;;;1.20;;
76589;SDS011;65471;55.908;37.880;2023-10-09T14:02:16;2.20;;;1.25;;
76589;SDS011;65471;55.908;37.880;2023-10-09T14:04:45;1.30;;;1.30;;
76589;SDS011;65471;55.908;37.880;2023-10-09T14:07:16;7.43;;;1.20;;
76589;SDS011;65471;55.908;37.880;2023-10-09T14:09:44;1.20;;;1.20;;
76589;SDS011;65471;55.908;37.880;2023-10-09T14:12:11;1.02;;;1.02;;
76589;SDS011;65471;55.908;37.880;2023-10-09T14:14:42;2.65;;;1.27;;
76589;SDS011;65471;55.908;37.880;2023-10-09T14:17:17;3.10;;;1.40;;
76589;SDS011;65471;55.908;37.880;2023-10-09T14:19:55;1.42;;;1.40;;
76589;SDS011;65471;55.908;37.880;2023-10-09T14:22:43;1.55;;;1.48;;
76589;SDS011;65471;55.908;37.880;2023-10-09T14:25:12;4.20;;;2.95;;
76589;SDS011;65471;55.908;37.880;2023-10-09T14:27:42;8.55;;;4.57;;
76589;SDS011;65471;55.908;37.880;2023-10-09T14:30:09;1.73;;;1.63;;
76589;SDS011;65471;55.908;37.880;2023-10-09T14:32:45;5.15;;;2.75;;
76589;SDS011;65471;55.908;37.880;2023-10-09T14:35:18;1.35;;;1.33;;
76589;SDS011;65471;55.908;37.880;2023-10-09T14:37:48;2.25;;;1.48;;
76589;SDS011;65471;55.908;37.880;2023-10-09T14:40:15;1.27;;;1.27;;
76589;SDS011;65471;55.908;37.880;2023-10-09T14:42:48;1.50;;;1.42;;
76589;SDS011;65471;55.908;37.880;2023-10-09T14:45:26;2.47;;;1.60;;
76589;SDS011;65471;55.908;37.880;2023-10-09T14:47:53;1.70;;;1.60;;
76589;SDS011;65471;55.908;37.880;2023-10-09T14:50:21;1.90;;;1.80;;
76589;SDS011;65471;55.908;37.880;2023-10-09T14:52:49;2.05;;;1.73;;
76589;SDS011;65471;55.908;37.880;2023-10-09T14:55:17;11.95;;;10.75;;
76589;SDS011;65471;55.908;37.880;2023-10-09T14:57:52;11.70;;;9.20;;
76589;SDS011;65471;55.908;37.880;2023-10-09T15:00:19;9.55;;;8.05;;
76589;SDS011;65471;55.908;37.880;2023-10-09T15:02:50;2.70;;;2.60;;
76589;SDS011;65471;55.908;37.880;2023-10-09T15:05:18;5.38;;;4.97;;
76589;SDS011;65471;55.908;37.880;2023-10-09T15:07:45;1.90;;;1.80;;
76589;SDS011;65471;55.908;37.880;2023-10-09T15:10:13;5.00;;;1.50;;
76589;SDS011;65471;55.908;37.880;2023-10-09T15:12:42;1.83;;;1.70;;
76589;SDS011;65471;55.908;37.880;2023-10-09T15:15:10;3.15;;;1.60;;
76589;SDS011;65471;55.908;37.880;2023-10-09T15:17:40;1.40;;;1.40;;
76589;SDS011;65471;55.908;37.880;2023-10-09T15:20:12;1.30;;;1.30;;
76589;SDS011;65471;55.908;37.880;2023-10-09T15:22:43;1.75;;;1.65;;
76589;SDS011;65471;55.908;37.880;2023-10-09T15:25:11;1.60;;;1.60;;
76589;SDS011;65471;55.908;37.880;2023-10-09T15:27:42;1.90;;;1.80;;
76589;SDS011;65471;55.908;37.880;2023-10-09T15:30:10;1.83;;;1.73;;
76589;SDS011;65471;55.908;37.880;2023-10-09T15:32:41;12.20;;;1.92;;
76589;SDS011;65471;55.908;37.880;2023-10-09T15:35:09;1.90;;;1.80;;
76589;SDS011;65471;55.908;37.880;2023-10-09T15:37:37;1.70;;;1.70;;
76589;SDS011;65471;55.908;37.880;2023-10-09T15:40:06;1.35;;;1.35;;
76589;SDS011;65471;55.908;37.880;2023-10-09T15:42:41;2.75;;;1.40;;
76589;SDS011;65471;55.908;37.880;2023-10-09T15:45:10;1.45;;;1.45;;